createdAt,value
2022-10-04T00:02:17.057Z,5.10
2022-10-04T00:04:51.773Z,6.10
2022-10-04T00:07:22.443Z,5.57
2022-10-04T00:09:55.688Z,5.30
2022-10-04T00:12:25.342Z,6.10
2022-10-04T00:14:54.018Z,5.80
2022-10-04T00:17:24.217Z,6.60
2022-10-04T00:19:52.306Z,5.63
2022-10-04T00:22:21.318Z,6.07
2022-10-04T00:25:03.390Z,6.77
2022-10-04T00:27:30.955Z,6.20
2022-10-04T00:30:04.157Z,6.77
2022-10-04T00:32:31.628Z,6.70
2022-10-04T00:35:00.187Z,6.23
2022-10-04T00:37:28.012Z,6.60
2022-10-04T00:40:04.580Z,7.00
2022-10-04T00:42:37.918Z,6.77
2022-10-04T00:45:14.559Z,7.07
2022-10-04T00:47:45.055Z,6.20
2022-10-04T00:50:21.705Z,7.97
2022-10-04T00:52:52.345Z,6.70
2022-10-04T00:55:40.096Z,5.90
2022-10-04T00:58:12.860Z,5.60
2022-10-04T01:00:40.935Z,5.93
2022-10-04T01:03:11.335Z,6.20
2022-10-04T01:05:41.797Z,6.97
2022-10-04T01:08:14.004Z,6.87
2022-10-04T01:10:50.838Z,6.57
2022-10-04T01:13:18.751Z,6.50
2022-10-04T01:15:51.651Z,6.13
2022-10-04T01:18:19.332Z,6.73
2022-10-04T01:20:58.523Z,6.63
2022-10-04T01:23:35.076Z,6.57
2022-10-04T01:26:03.905Z,8.07
2022-10-04T01:28:31.772Z,6.90
2022-10-04T01:30:59.835Z,6.43
2022-10-04T01:33:27.407Z,7.77
2022-10-04T01:35:54.932Z,6.70
2022-10-04T01:38:22.436Z,7.40
2022-10-04T01:40:54.212Z,6.90
2022-10-04T01:43:27.090Z,6.60
2022-10-04T01:45:59.106Z,6.70
2022-10-04T01:48:29.434Z,6.23
2022-10-04T01:50:56.882Z,6.03
2022-10-04T01:53:31.734Z,7.20
2022-10-04T01:56:13.992Z,6.87
2022-10-04T01:59:01.759Z,7.07
2022-10-04T02:01:38.401Z,6.63
2022-10-04T02:04:27.844Z,7.50
2022-10-04T02:06:56.670Z,6.37
2022-10-04T02:09:26.939Z,6.63
2022-10-04T02:11:55.308Z,7.43
2022-10-04T02:14:24.799Z,6.23
2022-10-04T02:16:53.398Z,6.90
2022-10-04T02:19:25.877Z,6.73
2022-10-04T02:21:53.929Z,6.97
2022-10-04T02:24:21.866Z,7.03
2022-10-04T02:26:49.991Z,6.53
2022-10-04T02:29:17.862Z,6.80
2022-10-04T02:31:45.978Z,6.93
2022-10-04T02:34:13.780Z,7.43
2022-10-04T02:36:42.174Z,6.97
2022-10-04T02:39:17.939Z,6.50
2022-10-04T02:41:49.830Z,7.17
2022-10-04T02:44:23.090Z,6.73
2022-10-04T02:46:56.504Z,6.90
2022-10-04T02:49:35.271Z,6.57
2022-10-04T02:52:15.236Z,7.17
2022-10-04T02:54:42.683Z,7.27
2022-10-04T02:57:15.126Z,6.90
2022-10-04T02:59:42.619Z,6.27
2022-10-04T03:02:30.130Z,6.50
2022-10-04T03:05:04.927Z,7.03
2022-10-04T03:07:36.445Z,6.43
2022-10-04T03:10:07.567Z,7.13
2022-10-04T03:12:35.175Z,6.63
2022-10-04T03:15:02.743Z,7.63
2022-10-04T03:17:30.282Z,6.87
2022-10-04T03:19:57.946Z,6.77
2022-10-04T03:22:25.494Z,7.00
2022-10-04T03:24:54.692Z,6.87
2022-10-04T03:27:35.406Z,7.30
2022-10-04T03:30:02.959Z,6.03
2022-10-04T03:32:30.848Z,5.60
2022-10-04T03:35:03.631Z,6.23
2022-10-04T03:37:32.315Z,7.37
2022-10-04T03:40:00.447Z,7.00
2022-10-04T03:42:35.246Z,6.47
2022-10-04T03:45:05.206Z,6.50
2022-10-04T03:47:34.561Z,6.80
2022-10-04T03:50:05.120Z,7.53
2022-10-04T03:52:34.087Z,7.13
2022-10-04T03:55:02.745Z,8.00
2022-10-04T03:57:31.070Z,6.73
2022-10-04T03:59:59.063Z,8.57
2022-10-04T04:02:31.234Z,7.67
2022-10-04T04:05:12.066Z,6.80
2022-10-04T04:07:44.370Z,7.23
2022-10-04T04:10:32.349Z,6.77
2022-10-04T04:13:05.763Z,7.60
2022-10-04T04:15:34.303Z,7.33
2022-10-04T04:18:06.664Z,6.90
2022-10-04T04:20:34.142Z,7.13
2022-10-04T04:23:08.731Z,7.07
2022-10-04T04:25:37.675Z,6.63
2022-10-04T04:28:14.500Z,6.70
2022-10-04T04:30:45.839Z,7.13
2022-10-04T04:33:21.147Z,7.47
2022-10-04T04:35:48.797Z,8.13
2022-10-04T04:38:24.125Z,8.63
2022-10-04T04:40:52.834Z,6.83
2022-10-04T04:43:20.657Z,6.70
2022-10-04T04:46:02.967Z,7.20
2022-10-04T04:48:37.481Z,7.27
2022-10-04T04:51:05.225Z,7.60
2022-10-04T04:53:32.830Z,7.47
2022-10-04T04:56:04.189Z,7.90
2022-10-04T04:58:43.319Z,6.97
2022-10-04T05:01:14.042Z,6.70
2022-10-04T05:03:41.952Z,8.33
2022-10-04T05:06:25.776Z,7.63
2022-10-04T05:08:53.278Z,6.67
2022-10-04T05:11:22.475Z,6.87
2022-10-04T05:13:52.031Z,6.77
2022-10-04T05:16:21.340Z,7.60
2022-10-04T05:18:48.978Z,7.40
2022-10-04T05:21:21.128Z,7.17
2022-10-04T05:23:48.682Z,7.20
2022-10-04T05:26:20.916Z,7.20
2022-10-04T05:28:48.558Z,7.50
2022-10-04T05:31:36.718Z,8.23
2022-10-04T05:34:07.810Z,7.33
2022-10-04T05:36:44.078Z,8.23
2022-10-04T05:39:14.664Z,7.83
2022-10-04T05:41:48.214Z,7.23
2022-10-04T05:44:39.035Z,6.23
2022-10-04T05:47:07.934Z,6.93
2022-10-04T05:49:40.848Z,7.77
2022-10-04T05:52:15.052Z,6.43
2022-10-04T05:54:42.571Z,6.70
2022-10-04T05:57:15.261Z,6.80
2022-10-04T06:00:04.078Z,7.30
2022-10-04T06:02:48.438Z,7.07
2022-10-04T06:05:51.796Z,8.13
2022-10-04T06:08:39.530Z,7.13
2022-10-04T06:11:12.741Z,6.97
2022-10-04T06:13:55.436Z,7.20
2022-10-04T06:16:23.063Z,6.80
2022-10-04T06:19:03.450Z,6.30
2022-10-04T06:21:35.419Z,6.80
2022-10-04T06:24:02.964Z,8.13
2022-10-04T06:26:51.144Z,6.50
2022-10-04T06:29:19.715Z,7.50
2022-10-04T06:31:57.289Z,6.13
2022-10-04T06:34:27.741Z,6.97
2022-10-04T06:37:10.394Z,7.77
2022-10-04T06:39:50.278Z,6.60
2022-10-04T06:42:29.028Z,6.67
2022-10-04T06:44:59.686Z,6.83
2022-10-04T06:47:30.025Z,6.90
2022-10-04T06:49:57.471Z,7.63
2022-10-04T06:52:26.995Z,6.63
2022-10-04T06:55:00.731Z,6.43
2022-10-04T06:57:28.242Z,6.50
2022-10-04T07:00:10.793Z,6.53
2022-10-04T07:02:41.447Z,7.53
2022-10-04T07:05:14.718Z,7.17
2022-10-04T07:07:44.895Z,6.07
2022-10-04T07:10:33.093Z,7.00
2022-10-04T07:13:09.881Z,6.63
2022-10-04T07:16:04.023Z,6.43
2022-10-04T07:18:36.595Z,7.60
2022-10-04T07:21:15.324Z,6.20
2022-10-04T07:23:58.220Z,6.70
2022-10-04T07:26:38.263Z,6.87
2022-10-04T07:29:13.056Z,6.43
2022-10-04T07:31:42.326Z,6.53
2022-10-04T07:34:11.542Z,6.73
2022-10-04T07:36:41.914Z,6.67
2022-10-04T07:39:38.953Z,6.97
2022-10-04T07:42:12.590Z,6.30
2022-10-04T07:44:41.975Z,6.93
2022-10-04T07:47:12.507Z,6.07
2022-10-04T07:49:40.662Z,7.00
2022-10-04T07:52:26.487Z,7.17
2022-10-04T07:55:02.923Z,7.17
2022-10-04T07:57:44.834Z,7.43
2022-10-04T08:00:18.170Z,6.83
2022-10-04T08:03:12.124Z,6.83
2022-10-04T08:05:46.328Z,7.03
2022-10-04T08:08:22.695Z,6.43
2022-10-04T08:11:08.341Z,6.57
2022-10-04T08:13:49.417Z,6.50
2022-10-04T08:16:23.428Z,7.07
2022-10-04T08:19:09.791Z,5.90
2022-10-04T08:21:49.668Z,6.83
2022-10-04T08:24:36.130Z,6.40
2022-10-04T08:27:06.673Z,6.47
2022-10-04T08:29:42.032Z,7.00
2022-10-04T08:32:12.523Z,6.40
2022-10-04T08:34:45.927Z,6.00
2022-10-04T08:37:32.461Z,6.33
2022-10-04T08:40:09.636Z,6.40
2022-10-04T08:42:48.465Z,6.87
2022-10-04T08:45:16.075Z,6.97
2022-10-04T08:47:46.757Z,7.10
2022-10-04T08:50:14.212Z,6.70
2022-10-04T08:52:41.623Z,6.80
2022-10-04T08:55:30.740Z,7.13
2022-10-04T08:58:15.980Z,6.47
2022-10-04T09:00:59.293Z,7.30
2022-10-04T09:03:47.603Z,8.07
2022-10-04T09:06:33.721Z,6.90
2022-10-04T09:09:13.469Z,6.93
2022-10-04T09:11:46.610Z,6.77
2022-10-04T09:14:32.631Z,6.60
2022-10-04T09:17:06.204Z,6.23
2022-10-04T09:19:48.895Z,6.43
2022-10-04T09:22:19.214Z,6.23
2022-10-04T09:25:01.956Z,6.83
2022-10-04T09:27:54.023Z,6.80
2022-10-04T09:30:21.070Z,6.97
2022-10-04T09:33:03.117Z,5.97
2022-10-04T09:35:36.633Z,6.93
2022-10-04T09:38:18.866Z,6.73
2022-10-04T09:41:05.234Z,6.23
2022-10-04T09:43:35.702Z,5.90
2022-10-04T09:46:09.368Z,6.27
2022-10-04T09:48:44.147Z,6.20
2022-10-04T09:51:25.259Z,6.70
2022-10-04T09:54:11.038Z,5.47
2022-10-04T09:56:53.887Z,5.73
2022-10-04T09:59:24.509Z,5.57
2022-10-04T10:02:04.560Z,6.00
2022-10-04T10:04:49.645Z,5.93
2022-10-04T10:07:22.867Z,5.90
2022-10-04T10:09:59.224Z,5.97
2022-10-04T10:12:35.625Z,5.80
2022-10-04T10:15:06.155Z,6.03
2022-10-04T10:17:38.799Z,4.87
2022-10-04T10:20:21.914Z,5.27
2022-10-04T10:23:01.493Z,5.17
2022-10-04T10:25:44.202Z,5.70
2022-10-04T10:28:11.759Z,5.93
2022-10-04T10:31:02.411Z,5.63
2022-10-04T10:33:30.079Z,5.80
2022-10-04T10:35:57.522Z,5.60
2022-10-04T10:38:25.003Z,5.33
2022-10-04T10:41:10.867Z,5.63
2022-10-04T10:43:41.170Z,5.23
2022-10-04T10:46:08.709Z,5.50
2022-10-04T10:48:54.821Z,4.77
2022-10-04T10:51:25.076Z,4.90
2022-10-04T10:53:58.403Z,4.43
2022-10-04T10:56:35.021Z,5.03
2022-10-04T10:59:05.407Z,4.40
2022-10-04T11:01:51.329Z,4.83
2022-10-04T11:04:18.815Z,4.27
2022-10-04T11:07:05.097Z,4.47
2022-10-04T11:09:37.738Z,4.33
2022-10-04T11:12:23.793Z,4.20
2022-10-04T11:14:56.461Z,3.80
2022-10-04T11:17:33.115Z,4.00
2022-10-04T11:20:06.652Z,3.80
2022-10-04T11:22:52.940Z,3.67
2022-10-04T11:25:27.834Z,3.63
2022-10-04T11:28:01.368Z,3.77
2022-10-04T11:30:49.299Z,2.80
2022-10-04T11:33:19.855Z,3.83
2022-10-04T11:35:47.285Z,3.17
2022-10-04T11:38:27.003Z,3.83
2022-10-04T11:41:05.784Z,3.73
2022-10-04T11:43:36.078Z,3.70
2022-10-04T11:46:18.801Z,3.60
2022-10-04T11:48:52.401Z,3.80
2022-10-04T11:51:46.981Z,4.13
2022-10-04T11:54:14.450Z,3.40
2022-10-04T11:56:51.058Z,4.10
2022-10-04T11:59:44.996Z,3.93
2022-10-04T12:02:31.014Z,4.20
2022-10-04T12:05:04.596Z,3.43
2022-10-04T12:07:41.245Z,3.97
2022-10-04T12:10:22.434Z,4.70
2022-10-04T12:13:01.783Z,4.30
2022-10-04T12:16:07.904Z,4.50
2022-10-04T12:18:41.769Z,4.17
2022-10-04T12:21:14.991Z,4.73
2022-10-04T12:23:45.253Z,4.60
2022-10-04T12:26:31.857Z,5.00
2022-10-04T12:29:17.899Z,5.00
2022-10-04T12:32:05.026Z,4.37
2022-10-04T12:34:35.649Z,4.10
2022-10-04T12:37:10.729Z,5.33
2022-10-04T12:39:41.254Z,4.60
2022-10-04T12:42:13.705Z,5.00
2022-10-04T12:44:59.431Z,4.30
2022-10-04T12:47:32.975Z,5.27
2022-10-04T12:50:12.911Z,4.27
2022-10-04T12:52:54.406Z,4.03
2022-10-04T12:55:27.467Z,4.30
2022-10-04T12:58:00.606Z,4.20
2022-10-04T13:00:29.550Z,4.20
2022-10-04T13:03:06.213Z,4.10
2022-10-04T13:05:33.865Z,4.30
2022-10-04T13:08:12.297Z,4.33
2022-10-04T13:10:58.585Z,4.10
2022-10-04T13:13:44.660Z,4.13
2022-10-04T13:19:12.072Z,2.97
2022-10-04T13:21:39.550Z,2.50
2022-10-04T13:24:24.067Z,2.50
2022-10-04T13:27:05.573Z,2.63
2022-10-04T13:29:37.109Z,2.57
2022-10-04T13:32:13.827Z,2.97
2022-10-04T13:34:41.489Z,2.43
2022-10-04T13:37:21.967Z,2.87
2022-10-04T13:39:49.602Z,2.90
2022-10-04T13:42:27.126Z,2.53
2022-10-04T13:45:06.561Z,2.60
2022-10-04T13:47:44.027Z,3.27
2022-10-04T13:50:23.419Z,2.63
2022-10-04T13:53:13.029Z,3.17
2022-10-04T13:55:52.807Z,2.90
2022-10-04T13:58:35.489Z,3.07
2022-10-04T14:01:14.105Z,3.17
2022-10-04T14:04:09.014Z,3.00
2022-10-04T14:06:36.497Z,3.20
2022-10-04T14:09:22.203Z,2.90
2022-10-04T14:12:08.476Z,3.10
2022-10-04T14:14:54.390Z,2.93
2022-10-04T14:17:27.720Z,3.27
2022-10-04T14:20:15.004Z,3.27
2022-10-04T14:22:55.894Z,3.00
2022-10-04T14:25:23.402Z,2.47
2022-10-04T14:27:51.000Z,3.00
2022-10-04T14:30:37.025Z,2.97
2022-10-04T14:33:16.459Z,2.50
2022-10-04T14:36:02.176Z,3.03
2022-10-04T14:38:36.916Z,3.17
2022-10-04T14:41:23.032Z,3.33
2022-10-04T14:44:09.157Z,2.63
2022-10-04T14:46:39.684Z,2.57
2022-10-04T14:49:19.770Z,2.57
2022-10-04T14:51:52.519Z,2.80
2022-10-04T14:54:49.337Z,2.83
2022-10-04T14:57:16.833Z,2.60
2022-10-04T14:59:50.054Z,2.60
2022-10-04T15:02:17.911Z,2.60
2022-10-04T15:05:00.864Z,2.83
2022-10-04T15:07:44.224Z,3.07
2022-10-04T15:10:41.108Z,2.43
2022-10-04T15:13:19.333Z,3.17
2022-10-04T15:15:52.822Z,2.83
2022-10-04T15:18:45.473Z,2.80
2022-10-04T15:21:34.731Z,2.97
2022-10-04T15:24:22.092Z,2.53
2022-10-04T15:27:09.725Z,2.90
2022-10-04T15:29:52.277Z,2.80
2022-10-04T15:32:26.558Z,2.90
2022-10-04T15:34:57.052Z,2.77
2022-10-04T15:37:36.573Z,2.67
2022-10-04T15:40:04.700Z,2.80
2022-10-04T15:42:36.687Z,2.27
2022-10-04T15:45:16.533Z,2.53
2022-10-04T15:47:49.974Z,3.03
2022-10-04T15:50:32.594Z,2.80
2022-10-04T15:53:00.257Z,3.03
2022-10-04T15:55:51.141Z,3.10
2022-10-04T15:58:18.796Z,2.83
2022-10-04T16:00:56.790Z,3.03
2022-10-04T16:03:44.662Z,3.17
2022-10-04T16:06:21.475Z,3.10
2022-10-04T16:08:56.073Z,2.80
2022-10-04T16:11:47.271Z,3.13
2022-10-04T16:14:27.041Z,2.70
2022-10-04T16:17:14.321Z,3.33
2022-10-04T16:19:44.615Z,3.03
2022-10-04T16:22:17.498Z,3.20
2022-10-04T16:24:44.968Z,3.50
2022-10-04T16:27:38.690Z,3.27
2022-10-04T16:30:26.644Z,3.50
2022-10-04T16:33:04.254Z,3.13
2022-10-04T16:35:33.966Z,3.43
2022-10-04T16:38:01.419Z,3.60
2022-10-04T16:40:47.777Z,3.53
2022-10-04T16:43:18.548Z,3.27
2022-10-04T16:45:58.403Z,3.53
2022-10-04T16:48:35.234Z,3.47
2022-10-04T16:51:18.752Z,4.10
2022-10-04T16:53:55.438Z,3.80
2022-10-04T16:56:27.007Z,3.40
2022-10-04T16:58:57.294Z,3.30
2022-10-04T17:01:24.901Z,3.63
2022-10-04T17:04:04.997Z,3.60
2022-10-04T17:06:52.989Z,3.77
2022-10-04T17:09:23.616Z,3.27
2022-10-04T17:12:12.604Z,3.70
2022-10-04T17:15:08.638Z,3.63
2022-10-04T17:17:45.055Z,3.80
2022-10-04T17:20:24.542Z,3.83
2022-10-04T17:22:58.224Z,3.97
2022-10-04T17:25:45.227Z,3.90
2022-10-04T17:28:36.343Z,4.03
2022-10-04T17:31:06.857Z,4.20
2022-10-04T17:33:49.633Z,4.43
2022-10-04T17:36:26.086Z,4.67
2022-10-04T17:38:53.694Z,4.57
2022-10-04T17:41:39.855Z,4.80
2022-10-04T17:44:25.827Z,4.50
2022-10-04T17:46:56.225Z,4.73
2022-10-04T17:49:23.991Z,4.77
2022-10-04T17:51:54.723Z,4.60
2022-10-04T17:54:27.647Z,4.50
2022-10-04T17:57:11.496Z,4.40
2022-10-04T17:59:42.139Z,4.50
2022-10-04T18:02:18.662Z,4.70
2022-10-04T18:04:58.071Z,4.90
2022-10-04T18:07:27.996Z,4.93
2022-10-04T18:09:57.223Z,5.03
2022-10-04T18:12:30.761Z,5.00
2022-10-04T18:15:02.144Z,5.17
2022-10-04T18:17:36.456Z,4.87
2022-10-04T18:20:16.092Z,4.60
2022-10-04T18:22:47.970Z,4.80
2022-10-04T18:25:19.262Z,4.57
2022-10-04T18:27:49.963Z,4.97
2022-10-04T18:30:18.870Z,4.73
2022-10-04T18:32:47.824Z,4.53
2022-10-04T18:35:34.474Z,5.30
2022-10-04T18:38:05.307Z,4.70
2022-10-04T18:40:34.546Z,4.50
2022-10-04T18:43:02.061Z,4.63
2022-10-04T18:45:29.726Z,4.80
2022-10-04T18:47:57.991Z,4.80
2022-10-04T18:50:38.948Z,5.10
2022-10-04T18:53:12.430Z,4.63
2022-10-04T18:55:39.984Z,4.63
2022-10-04T18:58:21.994Z,4.90
2022-10-04T19:00:54.844Z,4.90
2022-10-04T19:03:38.807Z,5.03
2022-10-04T19:06:35.837Z,5.97
2022-10-04T19:09:28.182Z,6.27
2022-10-04T19:12:25.002Z,5.27
2022-10-04T19:14:52.472Z,6.00
2022-10-04T19:17:33.640Z,5.77
2022-10-04T19:20:13.944Z,6.03
2022-10-04T19:22:44.103Z,6.70
2022-10-04T19:25:30.205Z,6.00
2022-10-04T19:28:00.578Z,5.13
2022-10-04T19:30:47.881Z,5.60
2022-10-04T19:33:15.332Z,5.43
2022-10-04T19:35:42.790Z,6.13
2022-10-04T19:38:25.384Z,6.53
2022-10-04T19:41:05.050Z,5.57
2022-10-04T19:43:50.723Z,7.07
2022-10-04T19:46:21.078Z,6.87
2022-10-04T19:48:49.618Z,7.23
2022-10-04T19:51:17.056Z,6.83
2022-10-04T19:53:45.052Z,7.10
2022-10-04T19:56:24.045Z,6.20
2022-10-04T19:59:06.461Z,6.67
2022-10-04T20:01:34.150Z,6.33
2022-10-04T20:04:02.242Z,6.40
2022-10-04T20:06:30.274Z,6.60
2022-10-04T20:09:02.780Z,6.77
2022-10-04T20:11:47.336Z,6.77
2022-10-04T20:14:17.907Z,6.03
2022-10-04T20:16:48.973Z,5.93
2022-10-04T20:19:29.171Z,6.43
2022-10-04T20:21:56.658Z,6.57
2022-10-04T20:24:39.059Z,6.67
2022-10-04T20:27:26.937Z,6.37
2022-10-04T20:29:58.375Z,6.23
2022-10-04T20:32:28.697Z,6.60
2022-10-04T20:34:57.044Z,6.77
2022-10-04T20:37:43.228Z,6.30
2022-10-04T20:40:22.692Z,7.30
2022-10-04T20:43:10.900Z,6.60
2022-10-04T20:45:44.340Z,6.23
2022-10-04T20:48:13.361Z,6.40
2022-10-04T20:50:41.143Z,6.30
2022-10-04T20:53:17.007Z,6.17
2022-10-04T20:55:44.654Z,6.27
2022-10-04T20:58:31.738Z,6.47
2022-10-04T21:01:00.424Z,6.33
2022-10-04T21:03:27.909Z,7.23
2022-10-04T21:06:04.309Z,6.03
2022-10-04T21:08:31.808Z,6.77
2022-10-04T21:11:05.290Z,6.70
2022-10-04T21:13:43.038Z,6.77
2022-10-04T21:16:10.782Z,6.60
2022-10-04T21:18:38.470Z,6.47
2022-10-04T21:21:06.079Z,6.33
2022-10-04T21:23:34.543Z,6.50
2022-10-04T21:26:20.943Z,5.57
2022-10-04T21:28:55.018Z,6.27
2022-10-04T21:31:22.643Z,6.83
2022-10-04T21:33:50.112Z,6.80
2022-10-04T21:36:17.570Z,6.50
2022-10-04T21:38:47.842Z,7.00
2022-10-04T21:41:15.456Z,6.53
2022-10-04T21:43:42.982Z,6.73
2022-10-04T21:46:10.694Z,6.33
2022-10-04T21:48:38.224Z,7.00
2022-10-04T21:51:05.725Z,7.10
2022-10-04T21:53:33.183Z,6.70
2022-10-04T21:56:00.911Z,7.00
2022-10-04T21:58:28.528Z,6.73
2022-10-04T22:00:56.044Z,7.20
2022-10-04T22:03:23.541Z,7.37
2022-10-04T22:05:51.010Z,7.93
2022-10-04T22:08:19.491Z,7.90
2022-10-04T22:10:47.092Z,8.23
2022-10-04T22:13:14.507Z,7.37
2022-10-04T22:15:42.247Z,7.83
2022-10-04T22:18:09.824Z,7.30
2022-10-04T22:20:37.800Z,6.80
2022-10-04T22:23:10.494Z,6.93
2022-10-04T22:25:37.952Z,6.93
2022-10-04T22:28:14.751Z,6.93
2022-10-04T22:30:44.656Z,7.67
2022-10-04T22:33:30.339Z,6.70
2022-10-04T22:36:06.182Z,7.37
2022-10-04T22:38:33.758Z,6.30
2022-10-04T22:41:01.231Z,6.70
2022-10-04T22:43:28.932Z,6.60
2022-10-04T22:45:56.509Z,6.70
2022-10-04T22:48:24.089Z,6.53
2022-10-04T22:50:51.514Z,6.67
2022-10-04T22:53:20.777Z,6.77
2022-10-04T22:55:52.199Z,7.00
2022-10-04T22:58:19.675Z,6.57
2022-10-04T23:00:47.237Z,7.37
2022-10-04T23:03:18.071Z,6.43
2022-10-04T23:05:45.671Z,6.40
2022-10-04T23:08:13.074Z,7.40
2022-10-04T23:10:40.930Z,6.63
2022-10-04T23:13:08.530Z,7.23
2022-10-04T23:15:36.072Z,7.17
2022-10-04T23:18:12.486Z,6.77
2022-10-04T23:20:39.984Z,7.30
2022-10-04T23:23:11.492Z,8.23
2022-10-04T23:25:40.577Z,7.90
2022-10-04T23:28:13.181Z,9.00
2022-10-04T23:30:40.771Z,8.60
2022-10-04T23:33:16.623Z,8.73
2022-10-04T23:35:44.369Z,7.97
2022-10-04T23:38:14.936Z,8.57
2022-10-04T23:40:43.009Z,7.93
2022-10-04T23:43:13.787Z,8.07
2022-10-04T23:45:41.507Z,8.07
2022-10-04T23:48:10.121Z,8.27
2022-10-04T23:50:38.395Z,8.70
2022-10-04T23:53:09.693Z,8.53
2022-10-04T23:55:39.162Z,7.93
2022-10-04T23:58:11.731Z,7.53
